sensor_id;sensor_type;location;lat;lon;timestamp;pressure;altitude;pressure_sealevel;temperature;humidity
60897;BME280;46749;32.932;-117.130;2023-09-08T00:02:07;101018.97;;;19.44;61.61
60897;BME280;46749;32.932;-117.130;2023-09-08T00:04:34;101025.97;;;19.44;61.38
60897;BME280;46749;32.932;-117.130;2023-09-08T00:07:00;101025.03;;;19.34;61.42
60897;BME280;46749;32.932;-117.130;2023-09-08T00:09:27;101016.22;;;19.27;61.94
60897;BME280;46749;32.932;-117.130;2023-09-08T00:11:53;101019.78;;;19.34;61.84
60897;BME280;46749;32.932;-117.130;2023-09-08T00:14:22;101018.06;;;19.39;61.52
60897;BME280;46749;32.932;-117.130;2023-09-08T00:16:49;101022.47;;;19.43;61.79
60897;BME280;46749;32.932;-117.130;2023-09-08T00:19:15;101024.22;;;19.46;61.44
60897;BME280;46749;32.932;-117.130;2023-09-08T00:21:41;101022.44;;;19.37;61.55
60897;BME280;46749;32.932;-117.130;2023-09-08T00:24:08;101015.38;;;19.30;61.95
60897;BME280;46749;32.932;-117.130;2023-09-08T00:26:35;101014.50;;;19.34;61.93
60897;BME280;46749;32.932;-117.130;2023-09-08T00:29:01;101010.16;;;19.40;61.83
60897;BME280;46749;32.932;-117.130;2023-09-08T00:31:27;101023.34;;;19.47;61.27
60897;BME280;46749;32.932;-117.130;2023-09-08T00:33:53;101025.97;;;19.48;61.19
60897;BME280;46749;32.932;-117.130;2023-09-08T00:36:19;101011.91;;;19.41;61.43
60897;BME280;46749;32.932;-117.130;2023-09-08T00:38:45;101018.03;;;19.33;61.88
60897;BME280;46749;32.932;-117.130;2023-09-08T00:41:12;101015.38;;;19.34;61.75
60897;BME280;46749;32.932;-117.130;2023-09-08T00:43:38;101025.06;;;19.40;61.79
60897;BME280;46749;32.932;-117.130;2023-09-08T00:46:04;101021.59;;;19.44;61.35
60897;BME280;46749;32.932;-117.130;2023-09-08T00:48:31;101018.97;;;19.46;61.34
60897;BME280;46749;32.932;-117.130;2023-09-08T00:50:58;101016.31;;;19.43;61.23
60897;BME280;46749;32.932;-117.130;2023-09-08T00:53:25;101032.94;;;19.35;61.39
60897;BME280;46749;32.932;-117.130;2023-09-08T00:55:51;101019.78;;;19.34;61.88
60897;BME280;46749;32.932;-117.130;2023-09-08T00:58:18;101021.56;;;19.41;61.48
60897;BME280;46749;32.932;-117.130;2023-09-08T01:00:44;101018.09;;;19.45;61.68
60897;BME280;46749;32.932;-117.130;2023-09-08T01:03:11;101014.56;;;19.48;61.22
60897;BME280;46749;32.932;-117.130;2023-09-08T01:05:38;101017.19;;;19.45;61.31
60897;BME280;46749;32.932;-117.130;2023-09-08T01:08:05;101025.94;;;19.36;61.67
60897;BME280;46749;32.932;-117.130;2023-09-08T01:10:32;101021.53;;;19.33;61.68
60897;BME280;46749;32.932;-117.130;2023-09-08T01:12:59;101031.22;;;19.42;61.68
60897;BME280;46749;32.932;-117.130;2023-09-08T01:15:25;101028.63;;;19.47;61.63
60897;BME280;46749;32.932;-117.130;2023-09-08T01:17:51;101032.16;;;19.50;61.71
60897;BME280;46749;32.932;-117.130;2023-09-08T01:20:24;101030.38;;;19.46;61.46
60897;BME280;46749;32.932;-117.130;2023-09-08T01:23:10;101042.63;;;19.38;61.65
60897;BME280;46749;32.932;-117.130;2023-09-08T01:26:20;101046.16;;;19.37;61.61
60897;BME280;46749;32.932;-117.130;2023-09-08T01:28:49;101045.31;;;19.46;61.63
60897;BME280;46749;32.932;-117.130;2023-09-08T01:31:16;101049.69;;;19.48;61.32
60897;BME280;46749;32.932;-117.130;2023-09-08T01:33:43;101053.22;;;19.50;61.23
60897;BME280;46749;32.932;-117.130;2023-09-08T01:36:10;101049.69;;;19.45;61.62
60897;BME280;46749;32.932;-117.130;2023-09-08T01:38:37;101052.28;;;19.36;61.81
60897;BME280;46749;32.932;-117.130;2023-09-08T01:41:03;101049.66;;;19.36;62.12
60897;BME280;46749;32.932;-117.130;2023-09-08T01:43:29;101051.44;;;19.43;61.84
60897;BME280;46749;32.932;-117.130;2023-09-08T01:45:55;101051.44;;;19.48;61.82
60897;BME280;46749;32.932;-117.130;2023-09-08T01:48:21;101055.88;;;19.50;61.13
60897;BME280;46749;32.932;-117.130;2023-09-08T01:50:47;101043.53;;;19.46;61.80
60897;BME280;46749;32.932;-117.130;2023-09-08T01:53:14;101051.41;;;19.37;61.40
60897;BME280;46749;32.932;-117.130;2023-09-08T01:55:40;101058.41;;;19.35;61.64
60897;BME280;46749;32.932;-117.130;2023-09-08T01:58:06;101059.31;;;19.41;61.63
60897;BME280;46749;32.932;-117.130;2023-09-08T02:00:32;101056.72;;;19.48;61.33
60897;BME280;46749;32.932;-117.130;2023-09-08T02:02:58;101058.50;;;19.50;61.37
60897;BME280;46749;32.932;-117.130;2023-09-08T02:05:24;101055.84;;;19.47;61.47
60897;BME280;46749;32.932;-117.130;2023-09-08T02:07:52;101057.56;;;19.39;61.37
60897;BME280;46749;32.932;-117.130;2023-09-08T02:10:18;101056.66;;;19.34;61.71
60897;BME280;46749;32.932;-117.130;2023-09-08T02:12:46;101057.56;;;19.40;61.46
60897;BME280;46749;32.932;-117.130;2023-09-08T02:15:12;101051.44;;;19.45;61.28
60897;BME280;46749;32.932;-117.130;2023-09-08T02:17:38;101061.97;;;19.48;61.71
60897;BME280;46749;32.932;-117.130;2023-09-08T02:20:05;101059.34;;;19.48;61.63
60897;BME280;46749;32.932;-117.130;2023-09-08T02:22:31;101067.22;;;19.40;61.35
60897;BME280;46749;32.932;-117.130;2023-09-08T02:24:57;101060.16;;;19.33;61.68
60897;BME280;46749;32.932;-117.130;2023-09-08T02:27:23;101061.06;;;19.39;61.75
60897;BME280;46749;32.932;-117.130;2023-09-08T02:29:50;101059.34;;;19.45;61.61
60897;BME280;46749;32.932;-117.130;2023-09-08T02:32:16;101059.34;;;19.48;61.33
60897;BME280;46749;32.932;-117.130;2023-09-08T02:34:42;101065.53;;;19.50;61.47
60897;BME280;46749;32.932;-117.130;2023-09-08T02:37:08;101074.25;;;19.41;61.55
60897;BME280;46749;32.932;-117.130;2023-09-08T02:39:35;101072.44;;;19.34;62.09
60897;BME280;46749;32.932;-117.130;2023-09-08T02:42:01;101072.47;;;19.37;62.04
60897;BME280;46749;32.932;-117.130;2023-09-08T02:44:27;101079.53;;;19.44;61.65
60897;BME280;46749;32.932;-117.130;2023-09-08T02:46:55;101079.53;;;19.47;61.77
60897;BME280;46749;32.932;-117.130;2023-09-08T02:49:21;101087.47;;;19.49;61.59
60897;BME280;46749;32.932;-117.130;2023-09-08T02:51:47;101076.00;;;19.42;61.29
60897;BME280;46749;32.932;-117.130;2023-09-08T02:54:13;101078.59;;;19.34;61.71
60897;BME280;46749;32.932;-117.130;2023-09-08T02:56:39;101083.03;;;19.37;61.73
60897;BME280;46749;32.932;-117.130;2023-09-08T02:59:05;101084.81;;;19.44;61.73
60897;BME280;46749;32.932;-117.130;2023-09-08T03:01:32;101084.81;;;19.47;61.35
60897;BME280;46749;32.932;-117.130;2023-09-08T03:03:58;101090.13;;;19.50;61.66
60897;BME280;46749;32.932;-117.130;2023-09-08T03:06:24;101087.44;;;19.43;61.58
60897;BME280;46749;32.932;-117.130;2023-09-08T03:08:50;101084.75;;;19.35;61.88
60897;BME280;46749;32.932;-117.130;2023-09-08T03:11:17;101088.28;;;19.37;61.62
60897;BME280;46749;32.932;-117.130;2023-09-08T03:13:43;101089.16;;;19.42;61.41
60897;BME280;46749;32.932;-117.130;2023-09-08T03:16:09;101087.44;;;19.46;61.20
60897;BME280;46749;32.932;-117.130;2023-09-08T03:18:37;101093.63;;;19.49;61.44
60897;BME280;46749;32.932;-117.130;2023-09-08T03:21:03;101102.34;;;19.42;61.65
60897;BME280;46749;32.932;-117.130;2023-09-08T03:23:42;101102.28;;;19.33;61.63
60897;BME280;46749;32.932;-117.130;2023-09-08T03:26:09;101105.81;;;19.32;62.00
60897;BME280;46749;32.932;-117.130;2023-09-08T03:28:36;101116.38;;;19.39;61.73
60897;BME280;46749;32.932;-117.130;2023-09-08T03:31:03;101108.53;;;19.43;61.33
60897;BME280;46749;32.932;-117.130;2023-09-08T03:33:30;101103.25;;;19.46;61.63
60897;BME280;46749;32.932;-117.130;2023-09-08T03:35:56;101112.88;;;19.42;61.29
60897;BME280;46749;32.932;-117.130;2023-09-08T03:38:23;101115.47;;;19.33;61.59
60897;BME280;46749;32.932;-117.130;2023-09-08T03:40:49;101122.47;;;19.31;61.74
60897;BME280;46749;32.932;-117.130;2023-09-08T03:43:15;101114.59;;;19.35;61.54
60897;BME280;46749;32.932;-117.130;2023-09-08T03:45:41;101117.25;;;19.41;61.79
60897;BME280;46749;32.932;-117.130;2023-09-08T03:48:08;101118.19;;;19.45;61.23
60897;BME280;46749;32.932;-117.130;2023-09-08T03:50:34;101120.78;;;19.42;61.60
60897;BME280;46749;32.932;-117.130;2023-09-08T03:53:01;101122.50;;;19.34;61.93
60897;BME280;46749;32.932;-117.130;2023-09-08T03:55:27;101118.09;;;19.30;62.19
60897;BME280;46749;32.932;-117.130;2023-09-08T03:57:53;101127.78;;;19.38;61.97
60897;BME280;46749;32.932;-117.130;2023-09-08T04:00:19;101129.59;;;19.43;61.53
60897;BME280;46749;32.932;-117.130;2023-09-08T04:02:50;101139.25;;;19.44;61.33
60897;BME280;46749;32.932;-117.130;2023-09-08T04:05:17;101139.22;;;19.42;61.59
60897;BME280;46749;32.932;-117.130;2023-09-08T04:07:46;101138.28;;;19.34;62.04
60897;BME280;46749;32.932;-117.130;2023-09-08T04:10:13;101134.75;;;19.29;62.02
60897;BME280;46749;32.932;-117.130;2023-09-08T04:12:40;101141.81;;;19.34;62.07
60897;BME280;46749;32.932;-117.130;2023-09-08T04:15:07;101140.97;;;19.40;61.76
60897;BME280;46749;32.932;-117.130;2023-09-08T04:17:33;101144.53;;;19.44;61.57
60897;BME280;46749;32.932;-117.130;2023-09-08T04:20:05;101144.53;;;19.44;61.52
60897;BME280;46749;32.932;-117.130;2023-09-08T04:22:32;101151.47;;;19.35;61.33
60897;BME280;46749;32.932;-117.130;2023-09-08T04:24:59;101157.56;;;19.28;61.98
60897;BME280;46749;32.932;-117.130;2023-09-08T04:27:25;101159.38;;;19.34;61.92
60897;BME280;46749;32.932;-117.130;2023-09-08T04:29:51;101160.28;;;19.39;61.94
60897;BME280;46749;32.932;-117.130;2023-09-08T04:32:18;101162.97;;;19.44;61.40
60897;BME280;46749;32.932;-117.130;2023-09-08T04:34:44;101155.06;;;19.44;61.20
60897;BME280;46749;32.932;-117.130;2023-09-08T04:37:10;101151.47;;;19.35;61.56
60897;BME280;46749;32.932;-117.130;2023-09-08T04:39:36;101151.41;;;19.28;62.08
60897;BME280;46749;32.932;-117.130;2023-09-08T04:42:03;101145.31;;;19.32;61.86
60897;BME280;46749;32.932;-117.130;2023-09-08T04:44:30;101143.59;;;19.37;61.52
60897;BME280;46749;32.932;-117.130;2023-09-08T04:46:56;101144.47;;;19.40;61.86
60897;BME280;46749;32.932;-117.130;2023-09-08T04:49:22;101144.53;;;19.44;61.19
60897;BME280;46749;32.932;-117.130;2023-09-08T04:51:48;101140.97;;;19.37;61.55
60897;BME280;46749;32.932;-117.130;2023-09-08T04:54:14;101140.88;;;19.28;61.84
60897;BME280;46749;32.932;-117.130;2023-09-08T04:56:40;101147.06;;;19.30;61.80
60897;BME280;46749;32.932;-117.130;2023-09-08T04:59:07;101140.94;;;19.35;61.52
60897;BME280;46749;32.932;-117.130;2023-09-08T05:01:33;101145.38;;;19.41;61.63
60897;BME280;46749;32.932;-117.130;2023-09-08T05:04:02;101139.22;;;19.42;61.26
60897;BME280;46749;32.932;-117.130;2023-09-08T05:06:29;101139.22;;;19.36;61.30
60897;BME280;46749;32.932;-117.130;2023-09-08T05:08:55;101140.88;;;19.28;61.99
60897;BME280;46749;32.932;-117.130;2023-09-08T05:11:21;101147.03;;;19.28;61.62
60897;BME280;46749;32.932;-117.130;2023-09-08T05:13:47;101140.94;;;19.34;61.64
60897;BME280;46749;32.932;-117.130;2023-09-08T05:16:13;101138.28;;;19.35;61.90
60897;BME280;46749;32.932;-117.130;2023-09-08T05:18:40;101139.22;;;19.39;61.83
60897;BME280;46749;32.932;-117.130;2023-09-08T05:21:07;101140.94;;;19.34;61.33
60897;BME280;46749;32.932;-117.130;2023-09-08T05:23:33;101136.50;;;19.27;61.99
60897;BME280;46749;32.932;-117.130;2023-09-08T05:26:00;101151.41;;;19.25;61.72
60897;BME280;46749;32.932;-117.130;2023-09-08T05:28:26;101146.19;;;19.31;61.63
60897;BME280;46749;32.932;-117.130;2023-09-08T05:30:56;101145.31;;;19.35;61.81
60897;BME280;46749;32.932;-117.130;2023-09-08T05:33:22;101154.13;;;19.38;61.81
60897;BME280;46749;32.932;-117.130;2023-09-08T05:35:48;101155.00;;;19.36;61.72
60897;BME280;46749;32.932;-117.130;2023-09-08T05:38:14;101148.78;;;19.28;61.47
60897;BME280;46749;32.932;-117.130;2023-09-08T05:40:41;101154.03;;;19.25;62.19
60897;BME280;46749;32.932;-117.130;2023-09-08T05:43:08;101156.72;;;19.31;61.54
60897;BME280;46749;32.932;-117.130;2023-09-08T05:45:35;101156.72;;;19.34;61.88
60897;BME280;46749;32.932;-117.130;2023-09-08T05:48:02;101159.41;;;19.37;61.44
60897;BME280;46749;32.932;-117.130;2023-09-08T05:50:28;101159.38;;;19.34;61.58
60897;BME280;46749;32.932;-117.130;2023-09-08T05:52:54;101164.56;;;19.26;61.76
60897;BME280;46749;32.932;-117.130;2023-09-08T05:55:20;101164.53;;;19.22;62.04
60897;BME280;46749;32.932;-117.130;2023-09-08T05:57:47;101154.03;;;19.26;61.54
60897;BME280;46749;32.932;-117.130;2023-09-08T06:00:14;101152.34;;;19.33;61.69
60897;BME280;46749;32.932;-117.130;2023-09-08T06:02:40;101162.88;;;19.34;61.50
60897;BME280;46749;32.932;-117.130;2023-09-08T06:05:07;101155.84;;;19.33;61.80
60897;BME280;46749;32.932;-117.130;2023-09-08T06:07:33;101161.06;;;19.26;61.97
60897;BME280;46749;32.932;-117.130;2023-09-08T06:09:59;101169.81;;;19.23;61.65
60897;BME280;46749;32.932;-117.130;2023-09-08T06:12:25;101155.81;;;19.27;61.66
60897;BME280;46749;32.932;-117.130;2023-09-08T06:14:51;101157.59;;;19.33;61.58
60897;BME280;46749;32.932;-117.130;2023-09-08T06:17:17;101154.09;;;19.35;61.33
60897;BME280;46749;32.932;-117.130;2023-09-08T06:19:44;101151.47;;;19.34;61.24
60897;BME280;46749;32.932;-117.130;2023-09-08T06:22:10;101157.56;;;19.27;61.82
60897;BME280;46749;32.932;-117.130;2023-09-08T06:24:36;101155.75;;;19.20;61.94
60897;BME280;46749;32.932;-117.130;2023-09-08T06:27:02;101156.63;;;19.22;61.64
60897;BME280;46749;32.932;-117.130;2023-09-08T06:29:28;101151.41;;;19.28;61.46
60897;BME280;46749;32.932;-117.130;2023-09-08T06:31:55;101155.84;;;19.30;61.52
60897;BME280;46749;32.932;-117.130;2023-09-08T06:34:21;101162.88;;;19.31;61.36
60897;BME280;46749;32.932;-117.130;2023-09-08T06:36:49;101162.81;;;19.24;61.60
60897;BME280;46749;32.932;-117.130;2023-09-08T06:39:15;101169.78;;;19.19;61.75
60897;BME280;46749;32.932;-117.130;2023-09-08T06:41:41;101167.16;;;19.22;62.02
60897;BME280;46749;32.932;-117.130;2023-09-08T06:44:07;101168.97;;;19.26;61.93
60897;BME280;46749;32.932;-117.130;2023-09-08T06:46:33;101167.22;;;19.28;61.65
60897;BME280;46749;32.932;-117.130;2023-09-08T06:48:59;101156.72;;;19.31;61.36
60897;BME280;46749;32.932;-117.130;2023-09-08T06:51:26;101161.03;;;19.23;61.72
60897;BME280;46749;32.932;-117.130;2023-09-08T06:53:56;101164.53;;;19.17;62.01
60897;BME280;46749;32.932;-117.130;2023-09-08T06:56:22;101161.88;;;19.19;62.20
60897;BME280;46749;32.932;-117.130;2023-09-08T06:58:48;101163.66;;;19.23;61.65
60897;BME280;46749;32.932;-117.130;2023-09-08T07:01:15;101166.34;;;19.26;61.69
60897;BME280;46749;32.932;-117.130;2023-09-08T07:03:41;101154.94;;;19.27;61.61
60897;BME280;46749;32.932;-117.130;2023-09-08T07:06:07;101162.81;;;19.24;61.65
60897;BME280;46749;32.932;-117.130;2023-09-08T07:08:33;101159.25;;;19.17;61.59
60897;BME280;46749;32.932;-117.130;2023-09-08T07:10:59;101160.09;;;19.14;61.63
60897;BME280;46749;32.932;-117.130;2023-09-08T07:13:25;101157.50;;;19.19;61.86
60897;BME280;46749;32.932;-117.130;2023-09-08T07:15:51;101167.22;;;19.25;61.55
60897;BME280;46749;32.932;-117.130;2023-09-08T07:18:18;101164.56;;;19.26;61.38
60897;BME280;46749;32.932;-117.130;2023-09-08T07:20:48;101175.97;;;19.24;61.66
60897;BME280;46749;32.932;-117.130;2023-09-08T07:23:16;101177.66;;;19.16;61.67
60897;BME280;46749;32.932;-117.130;2023-09-08T07:25:46;101174.13;;;19.13;62.18
60897;BME280;46749;32.932;-117.130;2023-09-08T07:28:13;101169.78;;;19.17;62.13
60897;BME280;46749;32.932;-117.130;2023-09-08T07:30:39;101167.16;;;19.22;62.13
60897;BME280;46749;32.932;-117.130;2023-09-08T07:33:05;101161.94;;;19.25;61.73
60897;BME280;46749;32.932;-117.130;2023-09-08T07:35:31;101165.44;;;19.24;61.65
60897;BME280;46749;32.932;-117.130;2023-09-08T07:37:58;101165.38;;;19.16;62.00
60897;BME280;46749;32.932;-117.130;2023-09-08T07:40:24;101161.84;;;19.12;62.07
60897;BME280;46749;32.932;-117.130;2023-09-08T07:42:50;101161.88;;;19.19;61.96
60897;BME280;46749;32.932;-117.130;2023-09-08T07:45:17;101161.91;;;19.22;61.75
60897;BME280;46749;32.932;-117.130;2023-09-08T07:47:43;101161.91;;;19.23;61.52
60897;BME280;46749;32.932;-117.130;2023-09-08T07:50:27;101161.03;;;19.21;61.54
60897;BME280;46749;32.932;-117.130;2023-09-08T07:52:55;101168.00;;;19.16;61.70
60897;BME280;46749;32.932;-117.130;2023-09-08T07:55:22;101169.75;;;19.11;62.04
60897;BME280;46749;32.932;-117.130;2023-09-08T07:57:50;101172.38;;;19.16;61.63
60897;BME280;46749;32.932;-117.130;2023-09-08T08:00:17;101168.03;;;19.21;61.79
60897;BME280;46749;32.932;-117.130;2023-09-08T08:02:46;101179.47;;;19.23;61.62
60897;BME280;46749;32.932;-117.130;2023-09-08T08:05:12;101177.69;;;19.20;61.46
60897;BME280;46749;32.932;-117.130;2023-09-08T08:07:39;101172.38;;;19.14;61.84
60897;BME280;46749;32.932;-117.130;2023-09-08T08:10:10;101172.31;;;19.09;61.71
60897;BME280;46749;32.932;-117.130;2023-09-08T08:12:37;101172.38;;;19.16;62.09
60897;BME280;46749;32.932;-117.130;2023-09-08T08:15:03;101174.19;;;19.21;61.52
60897;BME280;46749;32.932;-117.130;2023-09-08T08:17:30;101175.06;;;19.22;61.64
60897;BME280;46749;32.932;-117.130;2023-09-08T08:19:57;101170.69;;;19.21;61.43
60897;BME280;46749;32.932;-117.130;2023-09-08T08:22:36;101174.13;;;19.13;61.64
60897;BME280;46749;32.932;-117.130;2023-09-08T08:25:03;101174.06;;;19.07;62.09
60897;BME280;46749;32.932;-117.130;2023-09-08T08:27:29;101166.22;;;19.13;61.56
60897;BME280;46749;32.932;-117.130;2023-09-08T08:29:59;101182.97;;;19.19;61.74
60897;BME280;46749;32.932;-117.130;2023-09-08T08:32:29;101175.06;;;19.22;61.72
60897;BME280;46749;32.932;-117.130;2023-09-08T08:34:55;101178.56;;;19.22;61.21
60897;BME280;46749;32.932;-117.130;2023-09-08T08:37:22;101163.59;;;19.13;61.73
60897;BME280;46749;32.932;-117.130;2023-09-08T08:39:49;101174.06;;;19.07;62.08
60897;BME280;46749;32.932;-117.130;2023-09-08T08:42:15;101169.75;;;19.11;61.90
60897;BME280;46749;32.932;-117.130;2023-09-08T08:44:41;101175.88;;;19.14;61.61
60897;BME280;46749;32.932;-117.130;2023-09-08T08:47:10;101175.94;;;19.19;61.57
60897;BME280;46749;32.932;-117.130;2023-09-08T08:49:37;101174.19;;;19.18;61.38
60897;BME280;46749;32.932;-117.130;2023-09-08T08:52:06;101171.50;;;19.12;61.56
60897;BME280;46749;32.932;-117.130;2023-09-08T08:54:41;101177.56;;;19.05;62.13
60897;BME280;46749;32.932;-117.130;2023-09-08T08:57:08;101172.31;;;19.06;62.25
60897;BME280;46749;32.932;-117.130;2023-09-08T08:59:35;101175.88;;;19.13;61.98
60897;BME280;46749;32.932;-117.130;2023-09-08T09:02:03;101168.88;;;19.17;61.46
60897;BME280;46749;32.932;-117.130;2023-09-08T09:04:29;101175.94;;;19.18;61.38
60897;BME280;46749;32.932;-117.130;2023-09-08T09:06:56;101175.00;;;19.11;61.79
60897;BME280;46749;32.932;-117.130;2023-09-08T09:09:23;101173.16;;;19.02;61.90
60897;BME280;46749;32.932;-117.130;2023-09-08T09:11:49;101171.44;;;19.07;61.77
60897;BME280;46749;32.932;-117.130;2023-09-08T09:14:16;101159.19;;;19.11;62.05
60897;BME280;46749;32.932;-117.130;2023-09-08T09:16:45;101168.00;;;19.14;61.91
60897;BME280;46749;32.932;-117.130;2023-09-08T09:19:21;101168.88;;;19.15;61.77
60897;BME280;46749;32.932;-117.130;2023-09-08T09:21:58;101164.44;;;19.08;61.85
60897;BME280;46749;32.932;-117.130;2023-09-08T09:24:39;101163.50;;;19.01;61.77
60897;BME280;46749;32.932;-117.130;2023-09-08T09:27:12;101164.44;;;19.08;61.74
60897;BME280;46749;32.932;-117.130;2023-09-08T09:29:46;101171.50;;;19.12;61.47
60897;BME280;46749;32.932;-117.130;2023-09-08T09:32:13;101174.13;;;19.13;61.37
60897;BME280;46749;32.932;-117.130;2023-09-08T09:34:50;101174.13;;;19.13;61.79
60897;BME280;46749;32.932;-117.130;2023-09-08T09:37:19;101173.19;;;19.07;61.53
60897;BME280;46749;32.932;-117.130;2023-09-08T09:39:53;101166.13;;;19.04;61.96
60897;BME280;46749;32.932;-117.130;2023-09-08T09:42:20;101168.81;;;19.09;61.83
60897;BME280;46749;32.932;-117.130;2023-09-08T09:44:48;101162.69;;;19.10;61.54
60897;BME280;46749;32.932;-117.130;2023-09-08T09:47:16;101156.56;;;19.12;61.85
60897;BME280;46749;32.932;-117.130;2023-09-08T09:49:43;101155.66;;;19.09;61.59
60897;BME280;46749;32.932;-117.130;2023-09-08T09:52:12;101160.00;;;19.02;61.96
60897;BME280;46749;32.932;-117.130;2023-09-08T09:54:42;101160.81;;;18.97;61.85
60897;BME280;46749;32.932;-117.130;2023-09-08T09:57:13;101166.13;;;19.00;61.79
60897;BME280;46749;32.932;-117.130;2023-09-08T09:59:43;101162.66;;;19.05;61.91
60897;BME280;46749;32.932;-117.130;2023-09-08T10:02:15;101159.16;;;19.09;61.85
60897;BME280;46749;32.932;-117.130;2023-09-08T10:04:42;101160.03;;;19.08;61.82
60897;BME280;46749;32.932;-117.130;2023-09-08T10:07:11;101165.25;;;19.02;61.59
60897;BME280;46749;32.932;-117.130;2023-09-08T10:09:38;101157.31;;;18.98;61.71
60897;BME280;46749;32.932;-117.130;2023-09-08T10:12:05;101163.50;;;19.01;61.84
60897;BME280;46749;32.932;-117.130;2023-09-08T10:14:33;101161.75;;;19.03;61.56
60897;BME280;46749;32.932;-117.130;2023-09-08T10:17:01;101169.69;;;19.08;61.61
60897;BME280;46749;32.932;-117.130;2023-09-08T10:19:28;101175.84;;;19.08;61.83
60897;BME280;46749;32.932;-117.130;2023-09-08T10:22:00;101175.78;;;19.01;62.02
60897;BME280;46749;32.932;-117.130;2023-09-08T10:24:35;101171.34;;;18.95;62.06
60897;BME280;46749;32.932;-117.130;2023-09-08T10:27:12;101169.63;;;19.00;62.14
60897;BME280;46749;32.932;-117.130;2023-09-08T10:29:39;101168.78;;;19.04;61.75
60897;BME280;46749;32.932;-117.130;2023-09-08T10:32:07;101171.44;;;19.09;61.82
60897;BME280;46749;32.932;-117.130;2023-09-08T10:34:36;101167.06;;;19.08;61.50
60897;BME280;46749;32.932;-117.130;2023-09-08T10:37:03;101161.72;;;19.00;61.90
60897;BME280;46749;32.932;-117.130;2023-09-08T10:39:36;101173.97;;;18.95;62.12
60897;BME280;46749;32.932;-117.130;2023-09-08T10:47:22;101168.81;;;19.09;61.47
60897;BME280;46749;32.932;-117.130;2023-09-08T10:49:50;101162.69;;;19.08;61.78
60897;BME280;46749;32.932;-117.130;2023-09-08T10:52:21;101167.00;;;19.00;61.74
60897;BME280;46749;32.932;-117.130;2023-09-08T10:54:53;101169.56;;;18.94;61.96
60897;BME280;46749;32.932;-117.130;2023-09-08T10:57:24;101173.97;;;18.97;61.93
60897;BME280;46749;32.932;-117.130;2023-09-08T10:59:56;101167.00;;;19.00;61.63
60897;BME280;46749;32.932;-117.130;2023-09-08T11:05:02;101181.09;;;19.05;61.60
60897;BME280;46749;32.932;-117.130;2023-09-08T11:07:31;101174.00;;;18.98;61.93
60897;BME280;46749;32.932;-117.130;2023-09-08T11:09:59;101188.00;;;18.93;62.21
60897;BME280;46749;32.932;-117.130;2023-09-08T11:12:28;101191.53;;;18.96;61.75
60897;BME280;46749;32.932;-117.130;2023-09-08T11:14:55;101188.06;;;19.00;61.49
60897;BME280;46749;32.932;-117.130;2023-09-08T11:17:25;101186.31;;;19.02;61.45
60897;BME280;46749;32.932;-117.130;2023-09-08T11:19:52;101181.03;;;19.02;61.88
60897;BME280;46749;32.932;-117.130;2023-09-08T11:22:18;101177.47;;;18.96;61.99
60897;BME280;46749;32.932;-117.130;2023-09-08T11:24:45;101172.16;;;18.91;62.11
60897;BME280;46749;32.932;-117.130;2023-09-08T11:27:14;101180.09;;;18.94;61.70
60897;BME280;46749;32.932;-117.130;2023-09-08T11:29:40;101171.38;;;18.98;61.74
60897;BME280;46749;32.932;-117.130;2023-09-08T11:32:10;101184.56;;;19.01;61.93
60897;BME280;46749;32.932;-117.130;2023-09-08T11:34:37;101178.41;;;19.02;61.65
60897;BME280;46749;32.932;-117.130;2023-09-08T11:37:11;101184.50;;;18.95;61.57
60897;BME280;46749;32.932;-117.130;2023-09-08T11:39:45;101190.56;;;18.90;62.02
60897;BME280;46749;32.932;-117.130;2023-09-08T11:42:14;101175.72;;;18.93;61.82
60897;BME280;46749;32.932;-117.130;2023-09-08T11:44:41;101184.53;;;18.98;61.93
60897;BME280;46749;32.932;-117.130;2023-09-08T11:47:10;101181.03;;;19.01;61.54
60897;BME280;46749;32.932;-117.130;2023-09-08T11:49:40;101181.03;;;19.01;61.63
60897;BME280;46749;32.932;-117.130;2023-09-08T11:52:07;101173.97;;;18.95;61.74
60897;BME280;46749;32.932;-117.130;2023-09-08T11:54:34;101180.06;;;18.90;61.85
60897;BME280;46749;32.932;-117.130;2023-09-08T11:57:02;101173.03;;;18.92;61.94
60897;BME280;46749;32.932;-117.130;2023-09-08T11:59:33;101167.84;;;18.96;61.67
60897;BME280;46749;32.932;-117.130;2023-09-08T12:02:01;101176.66;;;18.98;61.96
60897;BME280;46749;32.932;-117.130;2023-09-08T12:04:27;101178.41;;;18.99;61.57
60897;BME280;46749;32.932;-117.130;2023-09-08T12:06:54;101171.31;;;18.94;61.83
60897;BME280;46749;32.932;-117.130;2023-09-08T12:09:23;101177.41;;;18.88;61.63
60897;BME280;46749;32.932;-117.130;2023-09-08T12:11:51;101183.56;;;18.92;62.06
60897;BME280;46749;32.932;-117.130;2023-09-08T12:14:17;101189.75;;;18.95;61.91
60897;BME280;46749;32.932;-117.130;2023-09-08T12:16:43;101186.25;;;18.98;61.51
60897;BME280;46749;32.932;-117.130;2023-09-08T12:19:30;101195.06;;;18.98;61.52
60897;BME280;46749;32.932;-117.130;2023-09-08T12:21:59;101195.88;;;18.93;61.85
60897;BME280;46749;32.932;-117.130;2023-09-08T12:25:07;101202.81;;;18.84;61.79
60897;BME280;46749;32.932;-117.130;2023-09-08T12:27:36;101211.63;;;18.90;61.80
60897;BME280;46749;32.932;-117.130;2023-09-08T12:30:03;101209.94;;;18.93;62.00
60897;BME280;46749;32.932;-117.130;2023-09-08T12:32:31;101212.56;;;18.96;61.70